sensor_id;sensor_type;location;lat;lon;timestamp;temperature;humidity
13970;DHT22;7057;49.984;8.404;2023-05-10T00:01:52;14.30;99.90
13970;DHT22;7057;49.984;8.404;2023-05-10T00:04:19;14.30;99.90
13970;DHT22;7057;49.984;8.404;2023-05-10T00:06:48;14.30;99.90
13970;DHT22;7057;49.984;8.404;2023-05-10T00:09:15;14.20;99.90
13970;DHT22;7057;49.984;8.404;2023-05-10T00:11:42;14.10;99.90
13970;DHT22;7057;49.984;8.404;2023-05-10T00:14:09;14.10;99.90
13970;DHT22;7057;49.984;8.404;2023-05-10T00:16:36;14.10;99.90
13970;DHT22;7057;49.984;8.404;2023-05-10T00:19:03;14.00;99.90
13970;DHT22;7057;49.984;8.404;2023-05-10T00:21:30;14.00;99.90
13970;DHT22;7057;49.984;8.404;2023-05-10T00:24:00;14.00;99.90
13970;DHT22;7057;49.984;8.404;2023-05-10T00:26:27;14.10;99.90
13970;DHT22;7057;49.984;8.404;2023-05-10T00:28:55;14.10;99.90
13970;DHT22;7057;49.984;8.404;2023-05-10T00:31:22;14.00;99.90
13970;DHT22;7057;49.984;8.404;2023-05-10T00:33:49;14.00;99.90
13970;DHT22;7057;49.984;8.404;2023-05-10T00:36:16;14.00;99.90
13970;DHT22;7057;49.984;8.404;2023-05-10T00:38:44;13.90;99.90
13970;DHT22;7057;49.984;8.404;2023-05-10T00:41:12;13.90;99.90
13970;DHT22;7057;49.984;8.404;2023-05-10T00:43:40;13.90;99.90
13970;DHT22;7057;49.984;8.404;2023-05-10T00:46:07;13.90;99.90
13970;DHT22;7057;49.984;8.404;2023-05-10T00:48:34;13.90;99.90
13970;DHT22;7057;49.984;8.404;2023-05-10T00:51:02;13.90;99.90
13970;DHT22;7057;49.984;8.404;2023-05-10T00:53:31;13.90;99.90
13970;DHT22;7057;49.984;8.404;2023-05-10T00:55:59;13.80;99.90
13970;DHT22;7057;49.984;8.404;2023-05-10T00:58:28;13.80;99.90
13970;DHT22;7057;49.984;8.404;2023-05-10T01:00:57;13.90;99.90
13970;DHT22;7057;49.984;8.404;2023-05-10T01:03:25;13.80;99.90
13970;DHT22;7057;49.984;8.404;2023-05-10T01:05:52;13.90;99.90
13970;DHT22;7057;49.984;8.404;2023-05-10T01:08:19;13.90;99.90
13970;DHT22;7057;49.984;8.404;2023-05-10T01:10:46;13.80;99.90
13970;DHT22;7057;49.984;8.404;2023-05-10T01:13:29;13.80;99.90
13970;DHT22;7057;49.984;8.404;2023-05-10T01:15:58;13.80;99.90
13970;DHT22;7057;49.984;8.404;2023-05-10T01:18:28;13.80;99.90
13970;DHT22;7057;49.984;8.404;2023-05-10T01:21:04;13.80;99.90
13970;DHT22;7057;49.984;8.404;2023-05-10T01:26:59;13.80;99.90
13970;DHT22;7057;49.984;8.404;2023-05-10T01:30:05;13.80;99.90
13970;DHT22;7057;49.984;8.404;2023-05-10T01:32:43;13.80;99.90
13970;DHT22;7057;49.984;8.404;2023-05-10T01:35:16;13.70;99.90
13970;DHT22;7057;49.984;8.404;2023-05-10T01:37:49;13.70;99.90
13970;DHT22;7057;49.984;8.404;2023-05-10T01:40:21;13.70;99.90
13970;DHT22;7057;49.984;8.404;2023-05-10T01:42:54;13.70;99.90
13970;DHT22;7057;49.984;8.404;2023-05-10T01:45:30;13.80;99.90
13970;DHT22;7057;49.984;8.404;2023-05-10T01:48:06;13.70;99.90
13970;DHT22;7057;49.984;8.404;2023-05-10T01:50:35;13.70;99.90
13970;DHT22;7057;49.984;8.404;2023-05-10T01:53:07;13.70;99.90
13970;DHT22;7057;49.984;8.404;2023-05-10T01:55:43;13.70;99.90
13970;DHT22;7057;49.984;8.404;2023-05-10T01:58:14;13.70;99.90
13970;DHT22;7057;49.984;8.404;2023-05-10T02:00:43;13.70;99.90
13970;DHT22;7057;49.984;8.404;2023-05-10T02:03:13;13.70;99.90
13970;DHT22;7057;49.984;8.404;2023-05-10T02:05:43;13.70;99.90
13970;DHT22;7057;49.984;8.404;2023-05-10T02:08:12;13.70;99.90
13970;DHT22;7057;49.984;8.404;2023-05-10T02:10:41;13.70;99.90
13970;DHT22;7057;49.984;8.404;2023-05-10T02:13:10;13.70;99.90
13970;DHT22;7057;49.984;8.404;2023-05-10T02:15:38;13.70;99.90
13970;DHT22;7057;49.984;8.404;2023-05-10T02:18:07;13.70;99.90
13970;DHT22;7057;49.984;8.404;2023-05-10T02:20:37;13.70;99.90
13970;DHT22;7057;49.984;8.404;2023-05-10T02:23:06;13.70;99.90
13970;DHT22;7057;49.984;8.404;2023-05-10T02:25:34;13.70;99.90
13970;DHT22;7057;49.984;8.404;2023-05-10T02:28:03;13.60;99.90
13970;DHT22;7057;49.984;8.404;2023-05-10T02:30:32;13.60;99.90
13970;DHT22;7057;49.984;8.404;2023-05-10T02:33:00;13.60;99.90
13970;DHT22;7057;49.984;8.404;2023-05-10T02:35:29;13.60;99.90
13970;DHT22;7057;49.984;8.404;2023-05-10T02:37:58;13.60;99.90
13970;DHT22;7057;49.984;8.404;2023-05-10T02:40:27;13.60;99.90
13970;DHT22;7057;49.984;8.404;2023-05-10T02:42:56;13.60;99.90
13970;DHT22;7057;49.984;8.404;2023-05-10T02:45:27;13.60;99.90
13970;DHT22;7057;49.984;8.404;2023-05-10T02:47:55;13.60;99.90
13970;DHT22;7057;49.984;8.404;2023-05-10T02:50:25;13.60;99.90
13970;DHT22;7057;49.984;8.404;2023-05-10T02:52:56;13.60;99.90
13970;DHT22;7057;49.984;8.404;2023-05-10T02:55:27;13.50;99.90
13970;DHT22;7057;49.984;8.404;2023-05-10T02:58:00;13.50;99.90
13970;DHT22;7057;49.984;8.404;2023-05-10T03:00:27;13.60;99.90
13970;DHT22;7057;49.984;8.404;2023-05-10T03:02:55;13.60;99.90
13970;DHT22;7057;49.984;8.404;2023-05-10T03:05:22;13.50;99.90
13970;DHT22;7057;49.984;8.404;2023-05-10T03:07:50;13.60;99.90
13970;DHT22;7057;49.984;8.404;2023-05-10T03:10:18;13.60;99.90
13970;DHT22;7057;49.984;8.404;2023-05-10T03:12:56;13.60;99.90
13970;DHT22;7057;49.984;8.404;2023-05-10T03:15:35;13.60;99.90
13970;DHT22;7057;49.984;8.404;2023-05-10T03:18:07;13.60;99.90
13970;DHT22;7057;49.984;8.404;2023-05-10T03:20:38;13.70;99.90
13970;DHT22;7057;49.984;8.404;2023-05-10T03:23:12;13.70;99.90
13970;DHT22;7057;49.984;8.404;2023-05-10T03:25:41;13.60;99.90
13970;DHT22;7057;49.984;8.404;2023-05-10T03:28:11;13.60;99.90
13970;DHT22;7057;49.984;8.404;2023-05-10T03:30:39;13.60;99.90
13970;DHT22;7057;49.984;8.404;2023-05-10T03:33:07;13.70;99.90
13970;DHT22;7057;49.984;8.404;2023-05-10T03:35:34;13.70;99.90
13970;DHT22;7057;49.984;8.404;2023-05-10T03:38:02;13.60;99.90
13970;DHT22;7057;49.984;8.404;2023-05-10T03:40:29;13.60;99.90
13970;DHT22;7057;49.984;8.404;2023-05-10T03:42:58;13.60;99.90
13970;DHT22;7057;49.984;8.404;2023-05-10T03:45:26;13.60;99.90
13970;DHT22;7057;49.984;8.404;2023-05-10T03:47:54;13.60;99.90
13970;DHT22;7057;49.984;8.404;2023-05-10T03:50:21;13.60;99.90
13970;DHT22;7057;49.984;8.404;2023-05-10T03:52:48;13.60;99.90
13970;DHT22;7057;49.984;8.404;2023-05-10T03:55:16;13.60;99.90
13970;DHT22;7057;49.984;8.404;2023-05-10T03:57:43;13.70;99.90
13970;DHT22;7057;49.984;8.404;2023-05-10T04:00:11;13.70;99.90
13970;DHT22;7057;49.984;8.404;2023-05-10T04:02:40;13.70;99.90
13970;DHT22;7057;49.984;8.404;2023-05-10T04:05:08;13.70;99.90
13970;DHT22;7057;49.984;8.404;2023-05-10T04:07:35;13.70;99.90
13970;DHT22;7057;49.984;8.404;2023-05-10T04:10:03;13.80;99.90
13970;DHT22;7057;49.984;8.404;2023-05-10T04:12:30;13.80;99.90
13970;DHT22;7057;49.984;8.404;2023-05-10T04:14:57;13.80;99.90
13970;DHT22;7057;49.984;8.404;2023-05-10T04:17:25;13.80;99.90
13970;DHT22;7057;49.984;8.404;2023-05-10T04:19:53;13.90;99.90
13970;DHT22;7057;49.984;8.404;2023-05-10T04:22:21;13.90;99.90
13970;DHT22;7057;49.984;8.404;2023-05-10T04:24:48;13.90;99.90
13970;DHT22;7057;49.984;8.404;2023-05-10T04:27:15;13.90;99.90
13970;DHT22;7057;49.984;8.404;2023-05-10T04:29:42;13.90;99.90
13970;DHT22;7057;49.984;8.404;2023-05-10T04:32:10;14.00;99.90
13970;DHT22;7057;49.984;8.404;2023-05-10T04:34:37;14.00;99.90
13970;DHT22;7057;49.984;8.404;2023-05-10T04:37:05;14.00;99.90
13970;DHT22;7057;49.984;8.404;2023-05-10T04:39:33;14.00;99.90
13970;DHT22;7057;49.984;8.404;2023-05-10T04:42:01;14.00;99.90
13970;DHT22;7057;49.984;8.404;2023-05-10T04:44:29;14.00;99.90
13970;DHT22;7057;49.984;8.404;2023-05-10T04:46:56;14.00;99.90
13970;DHT22;7057;49.984;8.404;2023-05-10T04:49:23;14.00;99.90
13970;DHT22;7057;49.984;8.404;2023-05-10T04:51:50;14.00;99.90
13970;DHT22;7057;49.984;8.404;2023-05-10T04:54:19;14.00;99.90
13970;DHT22;7057;49.984;8.404;2023-05-10T04:56:46;14.10;99.90
13970;DHT22;7057;49.984;8.404;2023-05-10T04:59:13;14.10;99.90
13970;DHT22;7057;49.984;8.404;2023-05-10T05:01:40;14.10;99.90
13970;DHT22;7057;49.984;8.404;2023-05-10T05:04:07;14.10;99.90
13970;DHT22;7057;49.984;8.404;2023-05-10T05:06:35;14.10;99.90
13970;DHT22;7057;49.984;8.404;2023-05-10T05:09:02;14.10;99.90
13970;DHT22;7057;49.984;8.404;2023-05-10T05:11:30;14.00;99.90
13970;DHT22;7057;49.984;8.404;2023-05-10T05:13:58;14.00;99.90
13970;DHT22;7057;49.984;8.404;2023-05-10T05:16:25;14.00;99.90
13970;DHT22;7057;49.984;8.404;2023-05-10T05:18:53;14.00;99.90
13970;DHT22;7057;49.984;8.404;2023-05-10T05:21:20;14.00;99.90
13970;DHT22;7057;49.984;8.404;2023-05-10T05:23:48;14.00;99.90
13970;DHT22;7057;49.984;8.404;2023-05-10T05:26:15;14.10;99.90
13970;DHT22;7057;49.984;8.404;2023-05-10T05:28:44;14.10;99.90
13970;DHT22;7057;49.984;8.404;2023-05-10T05:31:11;14.10;99.90
13970;DHT22;7057;49.984;8.404;2023-05-10T05:33:39;14.10;99.90
13970;DHT22;7057;49.984;8.404;2023-05-10T05:36:07;14.20;99.90
13970;DHT22;7057;49.984;8.404;2023-05-10T05:38:34;14.20;99.90
13970;DHT22;7057;49.984;8.404;2023-05-10T05:41:01;14.20;99.90
13970;DHT22;7057;49.984;8.404;2023-05-10T05:43:28;14.20;99.90
13970;DHT22;7057;49.984;8.404;2023-05-10T05:45:57;14.20;99.90
13970;DHT22;7057;49.984;8.404;2023-05-10T05:48:24;14.20;99.90
13970;DHT22;7057;49.984;8.404;2023-05-10T05:50:54;14.20;99.90
13970;DHT22;7057;49.984;8.404;2023-05-10T05:53:22;14.30;99.90
13970;DHT22;7057;49.984;8.404;2023-05-10T05:55:52;14.30;99.90
13970;DHT22;7057;49.984;8.404;2023-05-10T05:58:21;14.30;99.90
13970;DHT22;7057;49.984;8.404;2023-05-10T06:00:48;14.30;99.90
13970;DHT22;7057;49.984;8.404;2023-05-10T06:03:16;14.50;99.90
13970;DHT22;7057;49.984;8.404;2023-05-10T06:05:44;14.60;99.90
13970;DHT22;7057;49.984;8.404;2023-05-10T06:08:11;14.60;99.90
13970;DHT22;7057;49.984;8.404;2023-05-10T06:10:38;14.60;99.90
13970;DHT22;7057;49.984;8.404;2023-05-10T06:13:05;14.70;99.90
13970;DHT22;7057;49.984;8.404;2023-05-10T06:15:32;14.70;99.90
13970;DHT22;7057;49.984;8.404;2023-05-10T06:18:00;14.80;99.90
13970;DHT22;7057;49.984;8.404;2023-05-10T06:20:28;14.90;99.90
13970;DHT22;7057;49.984;8.404;2023-05-10T06:22:57;15.00;99.90
13970;DHT22;7057;49.984;8.404;2023-05-10T06:25:24;15.10;99.90
13970;DHT22;7057;49.984;8.404;2023-05-10T06:27:51;15.10;99.90
13970;DHT22;7057;49.984;8.404;2023-05-10T06:30:24;15.20;99.90
13970;DHT22;7057;49.984;8.404;2023-05-10T06:32:54;15.30;99.90
13970;DHT22;7057;49.984;8.404;2023-05-10T06:35:21;15.30;99.90
13970;DHT22;7057;49.984;8.404;2023-05-10T06:37:50;15.40;99.90
13970;DHT22;7057;49.984;8.404;2023-05-10T06:40:18;15.50;99.90
13970;DHT22;7057;49.984;8.404;2023-05-10T06:42:45;15.50;99.90
13970;DHT22;7057;49.984;8.404;2023-05-10T06:45:12;15.50;99.90
13970;DHT22;7057;49.984;8.404;2023-05-10T06:47:40;15.50;99.90
13970;DHT22;7057;49.984;8.404;2023-05-10T06:50:08;15.60;99.90
13970;DHT22;7057;49.984;8.404;2023-05-10T06:52:35;15.50;99.90
13970;DHT22;7057;49.984;8.404;2023-05-10T06:55:05;15.50;99.90
13970;DHT22;7057;49.984;8.404;2023-05-10T06:57:32;15.50;99.90
13970;DHT22;7057;49.984;8.404;2023-05-10T06:59:59;15.50;99.90
13970;DHT22;7057;49.984;8.404;2023-05-10T07:02:26;15.60;99.90
13970;DHT22;7057;49.984;8.404;2023-05-10T07:04:53;15.70;99.90
13970;DHT22;7057;49.984;8.404;2023-05-10T07:07:21;15.80;99.90
13970;DHT22;7057;49.984;8.404;2023-05-10T07:09:48;15.90;99.90
13970;DHT22;7057;49.984;8.404;2023-05-10T07:12:17;16.00;99.90
13970;DHT22;7057;49.984;8.404;2023-05-10T07:14:44;16.10;99.90
13970;DHT22;7057;49.984;8.404;2023-05-10T07:17:12;16.20;99.90
13970;DHT22;7057;49.984;8.404;2023-05-10T07:19:39;16.30;99.90
13970;DHT22;7057;49.984;8.404;2023-05-10T07:22:06;16.40;99.90
13970;DHT22;7057;49.984;8.404;2023-05-10T07:24:34;16.50;99.90
13970;DHT22;7057;49.984;8.404;2023-05-10T07:27:01;16.70;99.90
13970;DHT22;7057;49.984;8.404;2023-05-10T07:29:30;16.80;99.90
13970;DHT22;7057;49.984;8.404;2023-05-10T07:31:57;16.80;99.90
13970;DHT22;7057;49.984;8.404;2023-05-10T07:34:24;16.90;99.90
13970;DHT22;7057;49.984;8.404;2023-05-10T07:36:52;17.00;99.90
13970;DHT22;7057;49.984;8.404;2023-05-10T07:39:19;17.00;99.90
13970;DHT22;7057;49.984;8.404;2023-05-10T07:41:47;17.00;99.90
13970;DHT22;7057;49.984;8.404;2023-05-10T07:44:14;17.10;99.90
13970;DHT22;7057;49.984;8.404;2023-05-10T07:46:45;17.10;99.90
13970;DHT22;7057;49.984;8.404;2023-05-10T07:49:13;17.10;99.90
13970;DHT22;7057;49.984;8.404;2023-05-10T07:51:40;17.10;99.90
13970;DHT22;7057;49.984;8.404;2023-05-10T07:54:08;17.20;99.90
13970;DHT22;7057;49.984;8.404;2023-05-10T07:56:35;17.30;99.90
13970;DHT22;7057;49.984;8.404;2023-05-10T07:59:03;17.20;99.90
13970;DHT22;7057;49.984;8.404;2023-05-10T08:01:31;17.30;99.90
13970;DHT22;7057;49.984;8.404;2023-05-10T08:04:00;17.40;99.90
13970;DHT22;7057;49.984;8.404;2023-05-10T08:06:28;17.50;99.90
13970;DHT22;7057;49.984;8.404;2023-05-10T08:08:56;17.60;99.90
13970;DHT22;7057;49.984;8.404;2023-05-10T08:11:23;17.70;99.90
13970;DHT22;7057;49.984;8.404;2023-05-10T08:13:51;17.70;99.90
13970;DHT22;7057;49.984;8.404;2023-05-10T08:16:18;17.70;99.90
13970;DHT22;7057;49.984;8.404;2023-05-10T08:18:46;17.80;99.90
13970;DHT22;7057;49.984;8.404;2023-05-10T08:21:16;17.70;99.90
13970;DHT22;7057;49.984;8.404;2023-05-10T08:23:43;17.60;99.90
13970;DHT22;7057;49.984;8.404;2023-05-10T08:26:10;17.50;99.90
13970;DHT22;7057;49.984;8.404;2023-05-10T08:28:37;17.40;99.90
13970;DHT22;7057;49.984;8.404;2023-05-10T08:31:05;17.30;99.90
13970;DHT22;7057;49.984;8.404;2023-05-10T08:33:32;17.10;99.90
13970;DHT22;7057;49.984;8.404;2023-05-10T08:35:59;17.10;99.90
13970;DHT22;7057;49.984;8.404;2023-05-10T08:38:28;17.00;99.90
13970;DHT22;7057;49.984;8.404;2023-05-10T08:40:55;17.00;99.90
13970;DHT22;7057;49.984;8.404;2023-05-10T08:43:26;17.10;99.90
13970;DHT22;7057;49.984;8.404;2023-05-10T08:45:55;17.20;99.90
13970;DHT22;7057;49.984;8.404;2023-05-10T08:48:24;17.30;99.90
13970;DHT22;7057;49.984;8.404;2023-05-10T08:50:53;17.40;99.90
13970;DHT22;7057;49.984;8.404;2023-05-10T08:53:23;17.50;99.90
13970;DHT22;7057;49.984;8.404;2023-05-10T08:55:52;17.60;99.90
13970;DHT22;7057;49.984;8.404;2023-05-10T08:58:19;17.70;99.90
13970;DHT22;7057;49.984;8.404;2023-05-10T09:00:49;17.80;99.90
13970;DHT22;7057;49.984;8.404;2023-05-10T09:03:16;17.90;99.90
13970;DHT22;7057;49.984;8.404;2023-05-10T09:05:44;18.00;99.90
13970;DHT22;7057;49.984;8.404;2023-05-10T09:08:12;18.20;99.90
13970;DHT22;7057;49.984;8.404;2023-05-10T09:10:43;18.30;99.90
13970;DHT22;7057;49.984;8.404;2023-05-10T09:13:14;18.20;99.90
13970;DHT22;7057;49.984;8.404;2023-05-10T09:15:43;17.80;99.90
13970;DHT22;7057;49.984;8.404;2023-05-10T09:18:10;17.40;99.90
13970;DHT22;7057;49.984;8.404;2023-05-10T09:20:37;17.10;99.90
13970;DHT22;7057;49.984;8.404;2023-05-10T09:23:04;16.80;99.90
13970;DHT22;7057;49.984;8.404;2023-05-10T09:25:31;16.70;99.90
13970;DHT22;7057;49.984;8.404;2023-05-10T09:28:00;16.60;99.90
13970;DHT22;7057;49.984;8.404;2023-05-10T09:30:30;16.50;99.90
13970;DHT22;7057;49.984;8.404;2023-05-10T09:32:58;16.50;99.90
13970;DHT22;7057;49.984;8.404;2023-05-10T09:35:27;16.60;99.90
13970;DHT22;7057;49.984;8.404;2023-05-10T09:37:56;16.50;99.90
13970;DHT22;7057;49.984;8.404;2023-05-10T09:40:24;16.40;99.90
13970;DHT22;7057;49.984;8.404;2023-05-10T09:42:54;16.30;99.90
13970;DHT22;7057;49.984;8.404;2023-05-10T09:45:23;16.20;99.90
13970;DHT22;7057;49.984;8.404;2023-05-10T09:47:52;16.20;99.90
13970;DHT22;7057;49.984;8.404;2023-05-10T09:50:19;16.20;99.90
13970;DHT22;7057;49.984;8.404;2023-05-10T09:52:48;16.20;99.90
13970;DHT22;7057;49.984;8.404;2023-05-10T09:55:16;16.30;99.90
13970;DHT22;7057;49.984;8.404;2023-05-10T09:57:44;16.40;99.90
13970;DHT22;7057;49.984;8.404;2023-05-10T10:00:18;16.50;99.90
13970;DHT22;7057;49.984;8.404;2023-05-10T10:02:47;16.60;99.90
13970;DHT22;7057;49.984;8.404;2023-05-10T10:05:16;16.70;99.90
13970;DHT22;7057;49.984;8.404;2023-05-10T10:07:44;16.80;99.90
13970;DHT22;7057;49.984;8.404;2023-05-10T10:10:11;16.90;99.90
13970;DHT22;7057;49.984;8.404;2023-05-10T10:12:40;17.10;99.90
13970;DHT22;7057;49.984;8.404;2023-05-10T10:15:08;17.30;99.90
13970;DHT22;7057;49.984;8.404;2023-05-10T10:17:36;17.50;99.90
13970;DHT22;7057;49.984;8.404;2023-05-10T10:20:06;17.50;99.90
13970;DHT22;7057;49.984;8.404;2023-05-10T10:22:34;18.10;99.90
13970;DHT22;7057;49.984;8.404;2023-05-10T10:25:04;18.40;99.90
13970;DHT22;7057;49.984;8.404;2023-05-10T10:30:25;18.80;99.90
13970;DHT22;7057;49.984;8.404;2023-05-10T10:33:12;18.70;99.90
13970;DHT22;7057;49.984;8.404;2023-05-10T10:35:40;18.60;99.90
13970;DHT22;7057;49.984;8.404;2023-05-10T10:38:09;18.50;99.90
13970;DHT22;7057;49.984;8.404;2023-05-10T10:40:36;18.50;99.90
13970;DHT22;7057;49.984;8.404;2023-05-10T10:43:23;18.50;99.90
13970;DHT22;7057;49.984;8.404;2023-05-10T10:46:10;18.70;99.90
13970;DHT22;7057;49.984;8.404;2023-05-10T10:48:38;18.80;99.90
13970;DHT22;7057;49.984;8.404;2023-05-10T10:51:05;19.00;99.90
13970;DHT22;7057;49.984;8.404;2023-05-10T10:53:34;19.20;99.90
13970;DHT22;7057;49.984;8.404;2023-05-10T10:56:08;19.40;99.90
13970;DHT22;7057;49.984;8.404;2023-05-10T10:58:37;19.50;99.90
13970;DHT22;7057;49.984;8.404;2023-05-10T11:01:12;19.50;99.90
13970;DHT22;7057;49.984;8.404;2023-05-10T11:03:40;19.30;99.90
13970;DHT22;7057;49.984;8.404;2023-05-10T11:06:07;19.10;99.90
13970;DHT22;7057;49.984;8.404;2023-05-10T11:08:42;19.00;99.90
13970;DHT22;7057;49.984;8.404;2023-05-10T11:11:14;18.90;99.90
13970;DHT22;7057;49.984;8.404;2023-05-10T11:13:43;18.90;99.90
13970;DHT22;7057;49.984;8.404;2023-05-10T11:16:13;19.00;99.90
13970;DHT22;7057;49.984;8.404;2023-05-10T11:18:51;19.20;99.90
13970;DHT22;7057;49.984;8.404;2023-05-10T11:21:19;19.40;99.90
13970;DHT22;7057;49.984;8.404;2023-05-10T11:23:52;19.50;99.90
13970;DHT22;7057;49.984;8.404;2023-05-10T11:26:22;19.60;99.90
13970;DHT22;7057;49.984;8.404;2023-05-10T11:28:52;19.60;99.90
13970;DHT22;7057;49.984;8.404;2023-05-10T11:31:22;19.60;99.90
13970;DHT22;7057;49.984;8.404;2023-05-10T11:33:53;19.60;99.90
13970;DHT22;7057;49.984;8.404;2023-05-10T11:36:23;19.70;99.90
13970;DHT22;7057;49.984;8.404;2023-05-10T11:38:53;19.70;99.90
13970;DHT22;7057;49.984;8.404;2023-05-10T11:41:21;19.80;99.90
13970;DHT22;7057;49.984;8.404;2023-05-10T11:43:50;20.00;99.90
13970;DHT22;7057;49.984;8.404;2023-05-10T11:46:19;20.10;99.90
13970;DHT22;7057;49.984;8.404;2023-05-10T11:48:48;20.20;99.90
13970;DHT22;7057;49.984;8.404;2023-05-10T11:51:20;20.20;99.90
13970;DHT22;7057;49.984;8.404;2023-05-10T11:53:47;20.30;99.90
13970;DHT22;7057;49.984;8.404;2023-05-10T11:56:15;20.00;99.90
13970;DHT22;7057;49.984;8.404;2023-05-10T11:58:43;20.10;99.90
13970;DHT22;7057;49.984;8.404;2023-05-10T12:01:10;20.40;99.90
13970;DHT22;7057;49.984;8.404;2023-05-10T12:03:38;20.60;99.90
13970;DHT22;7057;49.984;8.404;2023-05-10T12:06:06;20.60;99.90
13970;DHT22;7057;49.984;8.404;2023-05-10T12:08:34;20.50;99.90
13970;DHT22;7057;49.984;8.404;2023-05-10T12:11:05;20.50;99.90
13970;DHT22;7057;49.984;8.404;2023-05-10T12:13:37;20.70;99.90
13970;DHT22;7057;49.984;8.404;2023-05-10T12:16:14;20.80;99.90
13970;DHT22;7057;49.984;8.404;2023-05-10T12:18:41;20.80;99.90
13970;DHT22;7057;49.984;8.404;2023-05-10T12:21:09;20.70;99.90
13970;DHT22;7057;49.984;8.404;2023-05-10T12:23:37;20.70;99.90
13970;DHT22;7057;49.984;8.404;2023-05-10T12:26:05;20.70;99.90
13970;DHT22;7057;49.984;8.404;2023-05-10T12:28:34;20.70;99.90
13970;DHT22;7057;49.984;8.404;2023-05-10T12:31:02;20.50;99.90
13970;DHT22;7057;49.984;8.404;2023-05-10T12:33:35;20.40;99.90
13970;DHT22;7057;49.984;8.404;2023-05-10T12:36:03;20.40;99.90
13970;DHT22;7057;49.984;8.404;2023-05-10T12:38:32;20.50;99.90
13970;DHT22;7057;49.984;8.404;2023-05-10T12:41:01;20.50;99.90
13970;DHT22;7057;49.984;8.404;2023-05-10T12:43:29;20.20;99.90
13970;DHT22;7057;49.984;8.404;2023-05-10T12:45:58;20.10;99.90
13970;DHT22;7057;49.984;8.404;2023-05-10T12:48:25;19.90;99.90
13970;DHT22;7057;49.984;8.404;2023-05-10T12:50:54;19.80;99.90
13970;DHT22;7057;49.984;8.404;2023-05-10T12:53:21;19.70;99.90
13970;DHT22;7057;49.984;8.404;2023-05-10T12:55:48;19.70;99.90
13970;DHT22;7057;49.984;8.404;2023-05-10T12:58:15;19.80;99.90
13970;DHT22;7057;49.984;8.404;2023-05-10T13:00:43;20.00;99.90
13970;DHT22;7057;49.984;8.404;2023-05-10T13:03:12;20.00;99.90
13970;DHT22;7057;49.984;8.404;2023-05-10T13:05:39;20.10;99.90
13970;DHT22;7057;49.984;8.404;2023-05-10T13:08:06;20.10;99.90
13970;DHT22;7057;49.984;8.404;2023-05-10T13:10:33;19.90;99.90
13970;DHT22;7057;49.984;8.404;2023-05-10T13:13:00;19.80;99.90
13970;DHT22;7057;49.984;8.404;2023-05-10T13:15:27;19.70;99.90
13970;DHT22;7057;49.984;8.404;2023-05-10T13:17:55;19.50;99.90
13970;DHT22;7057;49.984;8.404;2023-05-10T13:20:23;19.60;99.90
13970;DHT22;7057;49.984;8.404;2023-05-10T13:22:50;19.70;99.90
13970;DHT22;7057;49.984;8.404;2023-05-10T13:25:18;19.90;99.90
13970;DHT22;7057;49.984;8.404;2023-05-10T13:27:45;20.00;99.90
13970;DHT22;7057;49.984;8.404;2023-05-10T13:30:12;20.10;99.90
13970;DHT22;7057;49.984;8.404;2023-05-10T13:32:40;20.30;99.90
13970;DHT22;7057;49.984;8.404;2023-05-10T13:35:08;20.40;99.90
13970;DHT22;7057;49.984;8.404;2023-05-10T13:37:36;20.30;99.90
13970;DHT22;7057;49.984;8.404;2023-05-10T13:40:04;20.20;99.90
13970;DHT22;7057;49.984;8.404;2023-05-10T13:42:32;20.20;99.90
13970;DHT22;7057;49.984;8.404;2023-05-10T13:45:00;20.20;99.90
13970;DHT22;7057;49.984;8.404;2023-05-10T13:47:27;20.40;99.90
13970;DHT22;7057;49.984;8.404;2023-05-10T13:49:55;20.70;99.90
13970;DHT22;7057;49.984;8.404;2023-05-10T13:52:23;20.80;99.90
13970;DHT22;7057;49.984;8.404;2023-05-10T13:54:51;20.90;99.90
13970;DHT22;7057;49.984;8.404;2023-05-10T13:57:20;21.00;99.90
13970;DHT22;7057;49.984;8.404;2023-05-10T13:59:47;21.00;99.90
13970;DHT22;7057;49.984;8.404;2023-05-10T14:02:15;21.20;99.90
13970;DHT22;7057;49.984;8.404;2023-05-10T14:04:42;21.20;99.90
13970;DHT22;7057;49.984;8.404;2023-05-10T14:07:09;21.20;99.90
13970;DHT22;7057;49.984;8.404;2023-05-10T14:09:36;21.10;99.90
13970;DHT22;7057;49.984;8.404;2023-05-10T14:12:05;21.20;99.90
13970;DHT22;7057;49.984;8.404;2023-05-10T14:14:32;21.20;99.90
13970;DHT22;7057;49.984;8.404;2023-05-10T14:16:59;21.10;99.90
13970;DHT22;7057;49.984;8.404;2023-05-10T14:19:26;21.10;99.90
13970;DHT22;7057;49.984;8.404;2023-05-10T14:21:56;21.20;99.90
13970;DHT22;7057;49.984;8.404;2023-05-10T14:24:23;21.20;99.90
13970;DHT22;7057;49.984;8.404;2023-05-10T14:26:50;21.20;99.90
13970;DHT22;7057;49.984;8.404;2023-05-10T14:29:21;21.10;99.90
13970;DHT22;7057;49.984;8.404;2023-05-10T14:31:49;21.10;99.90
13970;DHT22;7057;49.984;8.404;2023-05-10T14:34:16;21.20;99.90
13970;DHT22;7057;49.984;8.404;2023-05-10T14:36:43;21.30;99.90
13970;DHT22;7057;49.984;8.404;2023-05-10T14:39:11;21.20;99.90
13970;DHT22;7057;49.984;8.404;2023-05-10T14:41:39;21.30;99.90
13970;DHT22;7057;49.984;8.404;2023-05-10T14:44:08;21.20;99.90
13970;DHT22;7057;49.984;8.404;2023-05-10T14:46:37;21.10;99.90
13970;DHT22;7057;49.984;8.404;2023-05-10T14:49:04;21.10;99.90
13970;DHT22;7057;49.984;8.404;2023-05-10T14:51:31;21.00;99.90
13970;DHT22;7057;49.984;8.404;2023-05-10T14:53:59;20.90;99.90
13970;DHT22;7057;49.984;8.404;2023-05-10T14:56:26;20.80;99.90
13970;DHT22;7057;49.984;8.404;2023-05-10T14:58:53;20.80;99.90
13970;DHT22;7057;49.984;8.404;2023-05-10T15:01:21;20.90;99.90
13970;DHT22;7057;49.984;8.404;2023-05-10T15:03:49;21.00;99.90
13970;DHT22;7057;49.984;8.404;2023-05-10T15:06:17;21.10;99.90
13970;DHT22;7057;49.984;8.404;2023-05-10T15:08:44;21.10;99.90
13970;DHT22;7057;49.984;8.404;2023-05-10T15:11:11;21.00;99.90
13970;DHT22;7057;49.984;8.404;2023-05-10T15:13:38;21.10;99.90
13970;DHT22;7057;49.984;8.404;2023-05-10T15:16:05;21.00;99.90
13970;DHT22;7057;49.984;8.404;2023-05-10T15:18:33;21.00;99.90
13970;DHT22;7057;49.984;8.404;2023-05-10T15:21:01;21.00;99.90
13970;DHT22;7057;49.984;8.404;2023-05-10T15:23:29;21.00;99.90
13970;DHT22;7057;49.984;8.404;2023-05-10T15:25:56;21.10;99.90
13970;DHT22;7057;49.984;8.404;2023-05-10T15:28:23;21.00;99.90
13970;DHT22;7057;49.984;8.404;2023-05-10T15:30:51;21.10;99.90
13970;DHT22;7057;49.984;8.404;2023-05-10T15:33:18;21.00;99.90
13970;DHT22;7057;49.984;8.404;2023-05-10T15:35:45;20.90;99.90
13970;DHT22;7057;49.984;8.404;2023-05-10T15:38:13;20.80;99.90
13970;DHT22;7057;49.984;8.404;2023-05-10T15:40:41;20.70;99.90
13970;DHT22;7057;49.984;8.404;2023-05-10T15:43:08;20.80;99.90
13970;DHT22;7057;49.984;8.404;2023-05-10T15:45:35;20.80;99.90
13970;DHT22;7057;49.984;8.404;2023-05-10T15:48:02;20.90;99.90
13970;DHT22;7057;49.984;8.404;2023-05-10T15:50:29;21.00;99.90
13970;DHT22;7057;49.984;8.404;2023-05-10T15:52:57;21.00;99.90
13970;DHT22;7057;49.984;8.404;2023-05-10T15:55:25;21.10;99.90
13970;DHT22;7057;49.984;8.404;2023-05-10T15:57:52;21.10;99.90
13970;DHT22;7057;49.984;8.404;2023-05-10T16:00:20;21.00;99.90